Etusivu
METAR-TAF:

METAR-TAF

Lentoasemat :

Ivalo, Suomi

Ivalon lentoasema

Leveyspiiri: 68-37N, Pituuspiiri: 027-25E, korkeus merenpinnasta: 147 m

Tämänhetkinen sää

Tämä raportti tehtiin 24 minuuttia sitten, kello 02.20 UTC
Tuuli 4 kn etelästä/kaakosta
Lämpötila 1°C
Kosteus 100%
Ilmanpaine 988 hPa
Näkyvyys: 9000 m
Pilvistä 900 ft:n korkeudessa
heikkoa sadetta

METAR: EFIV 250220Z AUTO 15004KT 9000 -RA OVC009 01/01 Q0988

Aika: 05:44 (02:44 UTC)

Sääennuste

Tämä raportti tehtiin 18 tuntia ja 24 minuuttia sitten, kello 08.20 UTC
Ennuste voimassa 24. päivästä klo 09 UTC - 24. päivään klo 11 UTC
Tuuli 10 kn etelästä
Näkyvyys 10 km tai enemmän
Hajonneita pilviä 2000 ft:n korkeudessa
Ajoittain
24. päivästä klo 09 UTC - 24. päivään klo 10 UTC
Näkyvyys: 8000 m
Hajonneita pilviä 1200 ft:n korkeudessa
heikkoa tihkusadetta

TAF: EFIV 240820Z 2409/2411 19010KT 9999 BKN020 TEMPO 2409/2410 8000 -DZ BKN012

Säähavainnot ja -ennusteet yli 4000 lentoasemalta (METAR- ja TAF-raportit).

Käytössä olevat sääasemat on merkitty karttaan keltaisilla ja punaisilla pisteillä.

Aseta hiiri pisteen päälle nähdäksesi sääaseman nimen.

Klikkaa sitten nähdäksesi säähavainnot ja -ennusteet.

Kartan vaihtaminen: klikkaa mustalla rastilla varustettuja vihreitä pisteitä, niin voit zoomata sisään; viivalla varustettua vihreää pistettä, niin voit zoomata ulos tai vihreitä nuolia, niin pääset viereisille kartoille.


METAR-TAF: